sensor_id;sensor_type;location;lat;lon;timestamp;temperature;humidity
16532;DHT22;66872;63.142;14.482;2023-10-13T00:01:30;14.60;45.70
16532;DHT22;66872;63.142;14.482;2023-10-13T00:03:56;14.60;45.70
16532;DHT22;66872;63.142;14.482;2023-10-13T00:06:21;14.60;45.70
16532;DHT22;66872;63.142;14.482;2023-10-13T00:08:47;14.60;45.70
16532;DHT22;66872;63.142;14.482;2023-10-13T00:11:14;14.60;45.70
16532;DHT22;66872;63.142;14.482;2023-10-13T00:13:41;14.60;45.70
16532;DHT22;66872;63.142;14.482;2023-10-13T00:16:17;14.70;45.80
16532;DHT22;66872;63.142;14.482;2023-10-13T00:18:43;14.70;45.80
16532;DHT22;66872;63.142;14.482;2023-10-13T00:21:10;14.60;45.70
16532;DHT22;66872;63.142;14.482;2023-10-13T00:23:40;14.60;45.80
16532;DHT22;66872;63.142;14.482;2023-10-13T00:26:21;14.60;45.80
16532;DHT22;66872;63.142;14.482;2023-10-13T00:28:53;14.60;45.80
16532;DHT22;66872;63.142;14.482;2023-10-13T00:31:40;14.60;45.80
16532;DHT22;66872;63.142;14.482;2023-10-13T00:34:09;14.60;45.80
16532;DHT22;66872;63.142;14.482;2023-10-13T00:36:45;14.60;45.80
16532;DHT22;66872;63.142;14.482;2023-10-13T00:39:29;14.60;45.90
16532;DHT22;66872;63.142;14.482;2023-10-13T00:41:55;14.60;45.90
16532;DHT22;66872;63.142;14.482;2023-10-13T00:44:25;14.60;45.90
16532;DHT22;66872;63.142;14.482;2023-10-13T00:46:57;14.60;45.90
16532;DHT22;66872;63.142;14.482;2023-10-13T00:49:23;14.60;45.90
16532;DHT22;66872;63.142;14.482;2023-10-13T00:51:50;14.60;45.90
16532;DHT22;66872;63.142;14.482;2023-10-13T00:54:17;14.60;45.90
16532;DHT22;66872;63.142;14.482;2023-10-13T00:56:46;14.60;45.90
16532;DHT22;66872;63.142;14.482;2023-10-13T00:59:15;14.60;46.00
16532;DHT22;66872;63.142;14.482;2023-10-13T01:01:41;14.60;46.00
16532;DHT22;66872;63.142;14.482;2023-10-13T01:04:10;14.60;46.00
16532;DHT22;66872;63.142;14.482;2023-10-13T01:06:38;14.60;46.00
16532;DHT22;66872;63.142;14.482;2023-10-13T01:09:05;14.60;46.10
16532;DHT22;66872;63.142;14.482;2023-10-13T01:11:41;14.60;46.10
16532;DHT22;66872;63.142;14.482;2023-10-13T01:14:11;14.60;46.10
16532;DHT22;66872;63.142;14.482;2023-10-13T01:16:40;14.60;46.10
16532;DHT22;66872;63.142;14.482;2023-10-13T01:19:13;14.60;46.10
16532;DHT22;66872;63.142;14.482;2023-10-13T01:21:40;14.60;46.10
16532;DHT22;66872;63.142;14.482;2023-10-13T01:24:13;14.50;46.00
16532;DHT22;66872;63.142;14.482;2023-10-13T01:26:43;14.50;46.10
16532;DHT22;66872;63.142;14.482;2023-10-13T01:29:09;14.50;46.10
16532;DHT22;66872;63.142;14.482;2023-10-13T01:31:42;14.50;46.10
16532;DHT22;66872;63.142;14.482;2023-10-13T01:34:14;14.50;46.10
16532;DHT22;66872;63.142;14.482;2023-10-13T01:36:45;14.50;46.10
16532;DHT22;66872;63.142;14.482;2023-10-13T01:39:11;14.50;46.10
16532;DHT22;66872;63.142;14.482;2023-10-13T01:41:41;14.50;46.10
16532;DHT22;66872;63.142;14.482;2023-10-13T01:44:08;14.50;46.20
16532;DHT22;66872;63.142;14.482;2023-10-13T01:46:37;14.50;46.20
16532;DHT22;66872;63.142;14.482;2023-10-13T01:49:03;14.50;46.20
16532;DHT22;66872;63.142;14.482;2023-10-13T01:51:29;14.50;46.20
16532;DHT22;66872;63.142;14.482;2023-10-13T01:53:54;14.50;46.20
16532;DHT22;66872;63.142;14.482;2023-10-13T01:56:24;14.50;46.30
16532;DHT22;66872;63.142;14.482;2023-10-13T01:58:50;14.50;46.20
16532;DHT22;66872;63.142;14.482;2023-10-13T02:01:17;14.50;46.20
16532;DHT22;66872;63.142;14.482;2023-10-13T02:03:56;14.50;46.20
16532;DHT22;66872;63.142;14.482;2023-10-13T02:06:32;14.50;46.20
16532;DHT22;66872;63.142;14.482;2023-10-13T02:09:06;14.50;46.30
16532;DHT22;66872;63.142;14.482;2023-10-13T02:11:43;14.50;46.90
16532;DHT22;66872;63.142;14.482;2023-10-13T02:14:12;14.50;46.30
16532;DHT22;66872;63.142;14.482;2023-10-13T02:16:42;14.50;46.30
16532;DHT22;66872;63.142;14.482;2023-10-13T02:19:07;14.50;46.40
16532;DHT22;66872;63.142;14.482;2023-10-13T02:21:35;14.40;46.30
16532;DHT22;66872;63.142;14.482;2023-10-13T02:24:08;14.40;46.30
16532;DHT22;66872;63.142;14.482;2023-10-13T02:26:40;14.40;46.40
16532;DHT22;66872;63.142;14.482;2023-10-13T02:29:06;14.40;46.40
16532;DHT22;66872;63.142;14.482;2023-10-13T02:31:40;14.40;46.40
16532;DHT22;66872;63.142;14.482;2023-10-13T02:34:06;14.40;46.40
16532;DHT22;66872;63.142;14.482;2023-10-13T02:36:39;14.40;46.40
16532;DHT22;66872;63.142;14.482;2023-10-13T02:39:19;14.40;46.40
16532;DHT22;66872;63.142;14.482;2023-10-13T02:41:53;14.40;46.40
16532;DHT22;66872;63.142;14.482;2023-10-13T02:44:21;14.40;46.50
16532;DHT22;66872;63.142;14.482;2023-10-13T02:46:56;14.40;46.50
16532;DHT22;66872;63.142;14.482;2023-10-13T02:49:23;14.40;46.50
16532;DHT22;66872;63.142;14.482;2023-10-13T02:51:51;14.40;46.50
16532;DHT22;66872;63.142;14.482;2023-10-13T02:54:18;14.40;46.60
16532;DHT22;66872;63.142;14.482;2023-10-13T02:56:45;14.40;46.60
16532;DHT22;66872;63.142;14.482;2023-10-13T02:59:23;14.40;46.60
16532;DHT22;66872;63.142;14.482;2023-10-13T03:02:13;14.40;46.60
16532;DHT22;66872;63.142;14.482;2023-10-13T03:04:58;14.40;46.60
16532;DHT22;66872;63.142;14.482;2023-10-13T03:07:35;14.40;46.60
16532;DHT22;66872;63.142;14.482;2023-10-13T03:10:02;14.40;46.70
16532;DHT22;66872;63.142;14.482;2023-10-13T03:12:36;14.40;46.70
16532;DHT22;66872;63.142;14.482;2023-10-13T03:15:02;14.40;46.70
16532;DHT22;66872;63.142;14.482;2023-10-13T03:17:43;14.40;46.70
16532;DHT22;66872;63.142;14.482;2023-10-13T03:20:10;14.40;46.70
16532;DHT22;66872;63.142;14.482;2023-10-13T03:22:38;14.40;46.70
16532;DHT22;66872;63.142;14.482;2023-10-13T03:25:05;14.40;46.70
16532;DHT22;66872;63.142;14.482;2023-10-13T03:27:32;14.40;46.70
16532;DHT22;66872;63.142;14.482;2023-10-13T03:30:17;14.40;46.70
16532;DHT22;66872;63.142;14.482;2023-10-13T03:32:43;14.40;46.80
16532;DHT22;66872;63.142;14.482;2023-10-13T03:35:20;14.30;46.70
16532;DHT22;66872;63.142;14.482;2023-10-13T03:37:56;14.40;46.80
16532;DHT22;66872;63.142;14.482;2023-10-13T03:40:22;14.40;46.80
16532;DHT22;66872;63.142;14.482;2023-10-13T03:42:53;14.30;46.70
16532;DHT22;66872;63.142;14.482;2023-10-13T03:48:05;14.30;46.80
16532;DHT22;66872;63.142;14.482;2023-10-13T03:50:38;14.30;46.80
16532;DHT22;66872;63.142;14.482;2023-10-13T03:53:14;14.30;46.80
16532;DHT22;66872;63.142;14.482;2023-10-13T03:55:40;14.30;46.80
16532;DHT22;66872;63.142;14.482;2023-10-13T03:58:14;14.30;46.90
16532;DHT22;66872;63.142;14.482;2023-10-13T04:00:39;14.30;46.90
16532;DHT22;66872;63.142;14.482;2023-10-13T04:03:08;14.30;46.90
16532;DHT22;66872;63.142;14.482;2023-10-13T04:05:35;14.30;46.90
16532;DHT22;66872;63.142;14.482;2023-10-13T04:08:26;14.30;46.90
16532;DHT22;66872;63.142;14.482;2023-10-13T04:10:56;14.30;46.90
16532;DHT22;66872;63.142;14.482;2023-10-13T04:13:22;14.30;46.90
16532;DHT22;66872;63.142;14.482;2023-10-13T04:16:09;14.30;46.90
16532;DHT22;66872;63.142;14.482;2023-10-13T04:18:47;14.30;46.90
16532;DHT22;66872;63.142;14.482;2023-10-13T04:21:26;14.30;46.90
16532;DHT22;66872;63.142;14.482;2023-10-13T04:24:07;14.30;47.00
16532;DHT22;66872;63.142;14.482;2023-10-13T04:27:03;14.30;47.00
16532;DHT22;66872;63.142;14.482;2023-10-13T04:29:38;14.30;47.00
16532;DHT22;66872;63.142;14.482;2023-10-13T04:32:22;14.30;47.00
16532;DHT22;66872;63.142;14.482;2023-10-13T04:34:57;14.30;47.00
16532;DHT22;66872;63.142;14.482;2023-10-13T04:37:37;14.30;47.00
16532;DHT22;66872;63.142;14.482;2023-10-13T04:40:21;14.30;47.00
16532;DHT22;66872;63.142;14.482;2023-10-13T04:42:51;14.30;47.00
16532;DHT22;66872;63.142;14.482;2023-10-13T04:45:23;14.30;47.00
16532;DHT22;66872;63.142;14.482;2023-10-13T04:48:01;14.30;47.00
16532;DHT22;66872;63.142;14.482;2023-10-13T04:50:49;14.30;47.00
16532;DHT22;66872;63.142;14.482;2023-10-13T04:53:24;14.30;47.00
16532;DHT22;66872;63.142;14.482;2023-10-13T04:56:00;14.30;47.00
16532;DHT22;66872;63.142;14.482;2023-10-13T04:58:32;14.20;46.90
16532;DHT22;66872;63.142;14.482;2023-10-13T05:01:04;14.20;47.00
16532;DHT22;66872;63.142;14.482;2023-10-13T05:04:02;14.20;47.00
16532;DHT22;66872;63.142;14.482;2023-10-13T05:06:40;14.20;47.00
16532;DHT22;66872;63.142;14.482;2023-10-13T05:09:09;14.20;47.00
16532;DHT22;66872;63.142;14.482;2023-10-13T05:11:53;14.30;47.10
16532;DHT22;66872;63.142;14.482;2023-10-13T05:14:38;14.30;47.00
16532;DHT22;66872;63.142;14.482;2023-10-13T05:17:22;14.30;47.00
16532;DHT22;66872;63.142;14.482;2023-10-13T05:20:07;14.20;46.90
16532;DHT22;66872;63.142;14.482;2023-10-13T05:22:51;14.20;47.50
16532;DHT22;66872;63.142;14.482;2023-10-13T05:25:36;14.20;47.00
16532;DHT22;66872;63.142;14.482;2023-10-13T05:28:20;14.20;47.00
16532;DHT22;66872;63.142;14.482;2023-10-13T05:31:05;14.20;47.00
16532;DHT22;66872;63.142;14.482;2023-10-13T05:33:49;14.20;47.00
16532;DHT22;66872;63.142;14.482;2023-10-13T05:36:34;14.20;46.90
16532;DHT22;66872;63.142;14.482;2023-10-13T05:39:18;14.20;46.90
16532;DHT22;66872;63.142;14.482;2023-10-13T05:42:03;14.20;46.90
16532;DHT22;66872;63.142;14.482;2023-10-13T05:44:47;14.20;46.90
16532;DHT22;66872;63.142;14.482;2023-10-13T05:47:23;14.20;46.90
16532;DHT22;66872;63.142;14.482;2023-10-13T05:50:12;14.20;46.90
16532;DHT22;66872;63.142;14.482;2023-10-13T05:52:50;14.20;46.90
16532;DHT22;66872;63.142;14.482;2023-10-13T05:55:29;14.20;46.90
16532;DHT22;66872;63.142;14.482;2023-10-13T05:58:14;14.20;46.90
16532;DHT22;66872;63.142;14.482;2023-10-13T06:00:58;14.20;46.90
16532;DHT22;66872;63.142;14.482;2023-10-13T06:03:43;14.20;46.90
16532;DHT22;66872;63.142;14.482;2023-10-13T06:06:27;14.20;46.80
16532;DHT22;66872;63.142;14.482;2023-10-13T06:09:11;14.20;46.90
16532;DHT22;66872;63.142;14.482;2023-10-13T06:11:55;14.20;46.90
16532;DHT22;66872;63.142;14.482;2023-10-13T06:14:39;14.20;46.90
16532;DHT22;66872;63.142;14.482;2023-10-13T06:17:24;14.20;47.40
16532;DHT22;66872;63.142;14.482;2023-10-13T06:20:08;14.20;46.80
16532;DHT22;66872;63.142;14.482;2023-10-13T06:22:52;14.30;46.90
16532;DHT22;66872;63.142;14.482;2023-10-13T06:25:37;14.30;46.90
16532;DHT22;66872;63.142;14.482;2023-10-13T06:28:35;14.30;46.90
16532;DHT22;66872;63.142;14.482;2023-10-13T06:31:11;14.30;46.90
16532;DHT22;66872;63.142;14.482;2023-10-13T06:33:55;14.30;46.90
16532;DHT22;66872;63.142;14.482;2023-10-13T06:36:21;14.30;46.90
16532;DHT22;66872;63.142;14.482;2023-10-13T06:38:47;14.30;46.80
16532;DHT22;66872;63.142;14.482;2023-10-13T06:41:20;14.30;46.80
16532;DHT22;66872;63.142;14.482;2023-10-13T06:43:47;14.30;46.80
16532;DHT22;66872;63.142;14.482;2023-10-13T06:46:25;14.30;46.70
16532;DHT22;66872;63.142;14.482;2023-10-13T06:48:53;14.30;46.70
16532;DHT22;66872;63.142;14.482;2023-10-13T06:51:19;14.40;46.80
16532;DHT22;66872;63.142;14.482;2023-10-13T06:53:49;14.40;46.70
16532;DHT22;66872;63.142;14.482;2023-10-13T06:56:15;14.40;46.70
16532;DHT22;66872;63.142;14.482;2023-10-13T06:58:54;14.40;46.60
16532;DHT22;66872;63.142;14.482;2023-10-13T07:01:29;14.40;46.60
16532;DHT22;66872;63.142;14.482;2023-10-13T07:03:55;14.50;46.60
16532;DHT22;66872;63.142;14.482;2023-10-13T07:06:27;14.50;46.50
16532;DHT22;66872;63.142;14.482;2023-10-13T07:08:53;14.50;46.40
16532;DHT22;66872;63.142;14.482;2023-10-13T07:11:28;14.50;46.30
16532;DHT22;66872;63.142;14.482;2023-10-13T07:14:03;14.60;47.00
16532;DHT22;66872;63.142;14.482;2023-10-13T07:16:57;14.60;46.20
16532;DHT22;66872;63.142;14.482;2023-10-13T07:19:29;14.60;46.20
16532;DHT22;66872;63.142;14.482;2023-10-13T07:22:02;14.60;46.10
16532;DHT22;66872;63.142;14.482;2023-10-13T07:24:48;14.60;46.10
16532;DHT22;66872;63.142;14.482;2023-10-13T07:27:20;14.60;46.10
16532;DHT22;66872;63.142;14.482;2023-10-13T07:29:56;14.60;46.00
16532;DHT22;66872;63.142;14.482;2023-10-13T07:32:31;14.70;46.10
16532;DHT22;66872;63.142;14.482;2023-10-13T07:35:00;14.70;46.10
16532;DHT22;66872;63.142;14.482;2023-10-13T07:37:27;14.60;46.10
16532;DHT22;66872;63.142;14.482;2023-10-13T07:39:58;14.60;46.00
16532;DHT22;66872;63.142;14.482;2023-10-13T07:42:27;14.60;46.00
16532;DHT22;66872;63.142;14.482;2023-10-13T07:44:58;14.60;46.00
16532;DHT22;66872;63.142;14.482;2023-10-13T07:47:24;14.60;46.00
16532;DHT22;66872;63.142;14.482;2023-10-13T07:49:52;14.70;46.20
16532;DHT22;66872;63.142;14.482;2023-10-13T07:52:18;14.70;46.10
16532;DHT22;66872;63.142;14.482;2023-10-13T07:54:47;14.60;46.00
16532;DHT22;66872;63.142;14.482;2023-10-13T07:57:15;14.70;46.10
16532;DHT22;66872;63.142;14.482;2023-10-13T07:59:41;14.70;46.10
16532;DHT22;66872;63.142;14.482;2023-10-13T08:02:16;14.70;46.10
16532;DHT22;66872;63.142;14.482;2023-10-13T08:05:02;14.70;46.10
16532;DHT22;66872;63.142;14.482;2023-10-13T08:07:30;14.70;46.00
16532;DHT22;66872;63.142;14.482;2023-10-13T08:09:56;14.70;46.00
16532;DHT22;66872;63.142;14.482;2023-10-13T08:12:25;14.70;46.00
16532;DHT22;66872;63.142;14.482;2023-10-13T08:14:50;14.70;46.00
16532;DHT22;66872;63.142;14.482;2023-10-13T08:17:34;14.70;45.90
16532;DHT22;66872;63.142;14.482;2023-10-13T08:20:00;14.80;46.00
16532;DHT22;66872;63.142;14.482;2023-10-13T08:22:36;14.80;46.50
16532;DHT22;66872;63.142;14.482;2023-10-13T08:25:04;14.70;45.90
16532;DHT22;66872;63.142;14.482;2023-10-13T08:27:48;14.80;46.10
16532;DHT22;66872;63.142;14.482;2023-10-13T08:30:15;14.80;46.00
16532;DHT22;66872;63.142;14.482;2023-10-13T08:32:56;14.80;45.90
16532;DHT22;66872;63.142;14.482;2023-10-13T08:35:23;14.80;45.70
16532;DHT22;66872;63.142;14.482;2023-10-13T08:37:55;14.80;39.00
16532;DHT22;66872;63.142;14.482;2023-10-13T08:40:24;14.70;39.50
16532;DHT22;66872;63.142;14.482;2023-10-13T08:43:12;14.60;40.00
16532;DHT22;66872;63.142;14.482;2023-10-13T08:45:43;14.60;40.30
16532;DHT22;66872;63.142;14.482;2023-10-13T08:48:12;14.60;39.60
16532;DHT22;66872;63.142;14.482;2023-10-13T08:50:45;14.60;37.40
16532;DHT22;66872;63.142;14.482;2023-10-13T08:53:25;14.60;37.90
16532;DHT22;66872;63.142;14.482;2023-10-13T08:58:36;14.40;35.90
16532;DHT22;66872;63.142;14.482;2023-10-13T09:01:34;14.40;36.50
16532;DHT22;66872;63.142;14.482;2023-10-13T09:04:02;14.40;37.00
16532;DHT22;66872;63.142;14.482;2023-10-13T09:06:55;14.40;37.20
16532;DHT22;66872;63.142;14.482;2023-10-13T09:09:54;14.40;37.80
16532;DHT22;66872;63.142;14.482;2023-10-13T09:14:55;14.50;38.50
16532;DHT22;66872;63.142;14.482;2023-10-13T09:17:29;14.50;38.80
16532;DHT22;66872;63.142;14.482;2023-10-13T09:20:08;14.60;38.80
16532;DHT22;66872;63.142;14.482;2023-10-13T09:22:51;14.60;39.00
16532;DHT22;66872;63.142;14.482;2023-10-13T09:25:33;14.60;39.10
16532;DHT22;66872;63.142;14.482;2023-10-13T09:28:12;14.70;39.10
16532;DHT22;66872;63.142;14.482;2023-10-13T09:30:51;14.70;39.40
16532;DHT22;66872;63.142;14.482;2023-10-13T09:33:29;14.70;39.40
16532;DHT22;66872;63.142;14.482;2023-10-13T09:36:01;14.70;39.20
16532;DHT22;66872;63.142;14.482;2023-10-13T09:38:35;14.80;39.40
16532;DHT22;66872;63.142;14.482;2023-10-13T09:41:06;14.80;39.40
16532;DHT22;66872;63.142;14.482;2023-10-13T09:43:44;14.80;39.50
16532;DHT22;66872;63.142;14.482;2023-10-13T09:46:14;14.80;39.40
16532;DHT22;66872;63.142;14.482;2023-10-13T09:48:47;14.90;39.30
16532;DHT22;66872;63.142;14.482;2023-10-13T09:51:14;14.80;35.30
16532;DHT22;66872;63.142;14.482;2023-10-13T09:53:51;14.70;35.10
16532;DHT22;66872;63.142;14.482;2023-10-13T09:56:27;14.60;35.50
16532;DHT22;66872;63.142;14.482;2023-10-13T10:01:28;14.70;36.20
16532;DHT22;66872;63.142;14.482;2023-10-13T10:04:08;14.80;36.40
16532;DHT22;66872;63.142;14.482;2023-10-13T10:06:52;14.70;35.40
16532;DHT22;66872;63.142;14.482;2023-10-13T10:09:17;14.80;34.80
16532;DHT22;66872;63.142;14.482;2023-10-13T10:14:47;14.80;35.30
16532;DHT22;66872;63.142;14.482;2023-10-13T10:17:20;14.80;35.60
16532;DHT22;66872;63.142;14.482;2023-10-13T10:19:48;14.90;35.90
16532;DHT22;66872;63.142;14.482;2023-10-13T10:22:13;14.90;36.00
16532;DHT22;66872;63.142;14.482;2023-10-13T10:25:00;15.00;36.20
16532;DHT22;66872;63.142;14.482;2023-10-13T10:27:29;15.00;36.20
16532;DHT22;66872;63.142;14.482;2023-10-13T10:29:56;15.10;36.30
16532;DHT22;66872;63.142;14.482;2023-10-13T10:32:42;15.10;36.40
16532;DHT22;66872;63.142;14.482;2023-10-13T10:35:14;15.20;36.50
16532;DHT22;66872;63.142;14.482;2023-10-13T10:37:41;15.20;36.50
16532;DHT22;66872;63.142;14.482;2023-10-13T10:40:14;15.30;36.70
16532;DHT22;66872;63.142;14.482;2023-10-13T10:42:58;15.30;36.70
16532;DHT22;66872;63.142;14.482;2023-10-13T10:45:27;15.30;36.70
16532;DHT22;66872;63.142;14.482;2023-10-13T10:47:58;15.40;36.90
16532;DHT22;66872;63.142;14.482;2023-10-13T10:50:27;15.40;36.90
16532;DHT22;66872;63.142;14.482;2023-10-13T10:53:04;15.40;37.00
16532;DHT22;66872;63.142;14.482;2023-10-13T10:55:36;15.40;37.00
16532;DHT22;66872;63.142;14.482;2023-10-13T10:58:02;15.40;37.00
16532;DHT22;66872;63.142;14.482;2023-10-13T11:00:32;15.40;37.10
16532;DHT22;66872;63.142;14.482;2023-10-13T11:03:11;15.50;37.20
16532;DHT22;66872;63.142;14.482;2023-10-13T11:05:47;15.50;37.20
16532;DHT22;66872;63.142;14.482;2023-10-13T11:08:24;15.40;37.10
16532;DHT22;66872;63.142;14.482;2023-10-13T11:10:58;15.40;37.20
16532;DHT22;66872;63.142;14.482;2023-10-13T11:13:26;15.40;37.40
16532;DHT22;66872;63.142;14.482;2023-10-13T11:15:56;15.40;37.50
16532;DHT22;66872;63.142;14.482;2023-10-13T11:18:29;15.40;37.60
16532;DHT22;66872;63.142;14.482;2023-10-13T11:20:59;15.40;37.70
16532;DHT22;66872;63.142;14.482;2023-10-13T11:23:25;15.40;37.80
16532;DHT22;66872;63.142;14.482;2023-10-13T11:26:00;15.40;37.90
16532;DHT22;66872;63.142;14.482;2023-10-13T11:28:26;15.50;38.00
16532;DHT22;66872;63.142;14.482;2023-10-13T11:30:58;15.50;38.10
16532;DHT22;66872;63.142;14.482;2023-10-13T11:33:25;15.50;38.10
16532;DHT22;66872;63.142;14.482;2023-10-13T11:35:57;15.50;38.10
16532;DHT22;66872;63.142;14.482;2023-10-13T11:38:24;15.50;38.20
16532;DHT22;66872;63.142;14.482;2023-10-13T11:40:59;15.50;38.20
16532;DHT22;66872;63.142;14.482;2023-10-13T11:43:35;15.50;38.30
16532;DHT22;66872;63.142;14.482;2023-10-13T11:46:22;15.50;38.40
16532;DHT22;66872;63.142;14.482;2023-10-13T11:49:05;15.40;38.50
16532;DHT22;66872;63.142;14.482;2023-10-13T11:51:44;15.40;38.70
16532;DHT22;66872;63.142;14.482;2023-10-13T11:54:14;15.40;38.80
16532;DHT22;66872;63.142;14.482;2023-10-13T11:56:41;15.40;39.00
16532;DHT22;66872;63.142;14.482;2023-10-13T11:59:07;15.30;39.00
16532;DHT22;66872;63.142;14.482;2023-10-13T12:01:42;15.30;39.10
16532;DHT22;66872;63.142;14.482;2023-10-13T12:04:27;15.30;39.10
16532;DHT22;66872;63.142;14.482;2023-10-13T12:06:58;15.30;39.20
16532;DHT22;66872;63.142;14.482;2023-10-13T12:09:42;15.30;39.30
16532;DHT22;66872;63.142;14.482;2023-10-13T12:12:25;15.30;39.40
16532;DHT22;66872;63.142;14.482;2023-10-13T12:14:51;15.30;39.50
16532;DHT22;66872;63.142;14.482;2023-10-13T12:17:29;15.30;39.60
16532;DHT22;66872;63.142;14.482;2023-10-13T12:20:07;15.20;39.50
16532;DHT22;66872;63.142;14.482;2023-10-13T12:22:43;15.30;40.30
16532;DHT22;66872;63.142;14.482;2023-10-13T12:25:09;15.30;39.70
16532;DHT22;66872;63.142;14.482;2023-10-13T12:27:54;15.30;39.80
16532;DHT22;66872;63.142;14.482;2023-10-13T12:30:26;15.30;39.80
16532;DHT22;66872;63.142;14.482;2023-10-13T12:33:25;15.30;39.90
16532;DHT22;66872;63.142;14.482;2023-10-13T12:35:59;15.30;39.90
16532;DHT22;66872;63.142;14.482;2023-10-13T12:38:35;15.30;40.00
16532;DHT22;66872;63.142;14.482;2023-10-13T12:41:20;15.30;40.10
16532;DHT22;66872;63.142;14.482;2023-10-13T12:44:05;15.30;40.10
16532;DHT22;66872;63.142;14.482;2023-10-13T12:46:50;15.20;40.10
16532;DHT22;66872;63.142;14.482;2023-10-13T12:49:34;15.20;40.20
16532;DHT22;66872;63.142;14.482;2023-10-13T12:52:06;15.20;40.20
16532;DHT22;66872;63.142;14.482;2023-10-13T12:54:51;15.20;40.30
16532;DHT22;66872;63.142;14.482;2023-10-13T12:57:26;15.20;40.30
16532;DHT22;66872;63.142;14.482;2023-10-13T12:59:52;15.20;40.00
16532;DHT22;66872;63.142;14.482;2023-10-13T13:02:23;15.30;39.80
16532;DHT22;66872;63.142;14.482;2023-10-13T13:04:53;15.30;39.80
16532;DHT22;66872;63.142;14.482;2023-10-13T13:07:41;15.20;39.70
16532;DHT22;66872;63.142;14.482;2023-10-13T13:10:15;15.30;39.80
16532;DHT22;66872;63.142;14.482;2023-10-13T13:12:41;15.30;39.80
16532;DHT22;66872;63.142;14.482;2023-10-13T13:15:07;15.30;39.90
16532;DHT22;66872;63.142;14.482;2023-10-13T13:17:38;15.30;39.90
16532;DHT22;66872;63.142;14.482;2023-10-13T13:20:07;15.30;39.90
16532;DHT22;66872;63.142;14.482;2023-10-13T13:22:39;15.30;39.90
16532;DHT22;66872;63.142;14.482;2023-10-13T13:25:06;15.30;39.90
16532;DHT22;66872;63.142;14.482;2023-10-13T13:27:36;15.30;39.90
16532;DHT22;66872;63.142;14.482;2023-10-13T13:30:03;15.30;40.00
16532;DHT22;66872;63.142;14.482;2023-10-13T13:32:38;15.30;40.00
16532;DHT22;66872;63.142;14.482;2023-10-13T13:35:04;15.30;39.90
16532;DHT22;66872;63.142;14.482;2023-10-13T13:37:34;15.30;39.90
16532;DHT22;66872;63.142;14.482;2023-10-13T13:40:03;15.30;39.90
16532;DHT22;66872;63.142;14.482;2023-10-13T13:42:47;15.30;39.90
16532;DHT22;66872;63.142;14.482;2023-10-13T13:45:17;15.30;39.80
16532;DHT22;66872;63.142;14.482;2023-10-13T13:48:09;15.30;39.80
16532;DHT22;66872;63.142;14.482;2023-10-13T13:50:44;15.30;40.10
16532;DHT22;66872;63.142;14.482;2023-10-13T13:53:10;15.20;35.80
16532;DHT22;66872;63.142;14.482;2023-10-13T13:55:37;15.10;35.30
16532;DHT22;66872;63.142;14.482;2023-10-13T13:58:05;15.00;35.90
16532;DHT22;66872;63.142;14.482;2023-10-13T14:00:33;15.10;36.30
16532;DHT22;66872;63.142;14.482;2023-10-13T14:03:13;15.00;36.60
16532;DHT22;66872;63.142;14.482;2023-10-13T14:06:00;15.10;36.90
16532;DHT22;66872;63.142;14.482;2023-10-13T14:08:26;15.10;37.30
16532;DHT22;66872;63.142;14.482;2023-10-13T14:10:55;15.10;37.20
16532;DHT22;66872;63.142;14.482;2023-10-13T14:13:39;15.10;37.40
16532;DHT22;66872;63.142;14.482;2023-10-13T14:16:18;15.10;37.60
16532;DHT22;66872;63.142;14.482;2023-10-13T14:18:49;15.00;37.50
16532;DHT22;66872;63.142;14.482;2023-10-13T14:21:15;15.10;37.70
16532;DHT22;66872;63.142;14.482;2023-10-13T14:23:51;15.00;38.00
16532;DHT22;66872;63.142;14.482;2023-10-13T14:26:20;15.00;38.10
16532;DHT22;66872;63.142;14.482;2023-10-13T14:28:47;15.00;38.20
16532;DHT22;66872;63.142;14.482;2023-10-13T14:31:28;15.00;38.30
16532;DHT22;66872;63.142;14.482;2023-10-13T14:33:53;15.00;38.30
16532;DHT22;66872;63.142;14.482;2023-10-13T14:36:19;15.00;38.40
16532;DHT22;66872;63.142;14.482;2023-10-13T14:38:48;15.00;38.40
16532;DHT22;66872;63.142;14.482;2023-10-13T14:41:16;15.00;38.50
16532;DHT22;66872;63.142;14.482;2023-10-13T14:43:43;15.00;38.70
16532;DHT22;66872;63.142;14.482;2023-10-13T14:46:19;15.00;38.80
16532;DHT22;66872;63.142;14.482;2023-10-13T14:48:54;15.00;38.90
16532;DHT22;66872;63.142;14.482;2023-10-13T14:51:20;15.00;39.00
16532;DHT22;66872;63.142;14.482;2023-10-13T14:53:46;15.00;39.10
16532;DHT22;66872;63.142;14.482;2023-10-13T14:56:16;15.00;39.20
16532;DHT22;66872;63.142;14.482;2023-10-13T14:58:44;15.00;39.30
16532;DHT22;66872;63.142;14.482;2023-10-13T15:01:17;15.00;39.30
16532;DHT22;66872;63.142;14.482;2023-10-13T15:03:43;15.00;39.40
16532;DHT22;66872;63.142;14.482;2023-10-13T15:06:21;15.00;39.50
16532;DHT22;66872;63.142;14.482;2023-10-13T15:08:52;15.00;39.60
16532;DHT22;66872;63.142;14.482;2023-10-13T15:11:20;14.90;39.60
16532;DHT22;66872;63.142;14.482;2023-10-13T15:13:46;15.00;39.80
16532;DHT22;66872;63.142;14.482;2023-10-13T15:16:24;15.00;39.80
16532;DHT22;66872;63.142;14.482;2023-10-13T15:18:51;14.90;39.80
16532;DHT22;66872;63.142;14.482;2023-10-13T15:21:21;14.90;39.80
16532;DHT22;66872;63.142;14.482;2023-10-13T15:23:48;15.00;40.00
16532;DHT22;66872;63.142;14.482;2023-10-13T15:26:19;14.90;40.00
16532;DHT22;66872;63.142;14.482;2023-10-13T15:28:50;15.00;40.10
16532;DHT22;66872;63.142;14.482;2023-10-13T15:31:22;14.90;40.10
16532;DHT22;66872;63.142;14.482;2023-10-13T15:34:12;14.90;40.20
16532;DHT22;66872;63.142;14.482;2023-10-13T15:36:42;14.90;40.30
16532;DHT22;66872;63.142;14.482;2023-10-13T15:39:12;14.90;40.30
16532;DHT22;66872;63.142;14.482;2023-10-13T15:41:41;14.90;40.40
16532;DHT22;66872;63.142;14.482;2023-10-13T15:44:11;14.90;40.40
16532;DHT22;66872;63.142;14.482;2023-10-13T15:46:38;14.90;40.40
16532;DHT22;66872;63.142;14.482;2023-10-13T15:49:04;14.90;40.40
16532;DHT22;66872;63.142;14.482;2023-10-13T15:51:35;14.90;40.50
16532;DHT22;66872;63.142;14.482;2023-10-13T15:54:02;14.90;40.50
16532;DHT22;66872;63.142;14.482;2023-10-13T15:56:29;14.90;40.60
16532;DHT22;66872;63.142;14.482;2023-10-13T15:58:59;14.90;40.60
16532;DHT22;66872;63.142;14.482;2023-10-13T16:01:27;14.90;40.60
16532;DHT22;66872;63.142;14.482;2023-10-13T16:03:53;14.90;40.70
16532;DHT22;66872;63.142;14.482;2023-10-13T16:06:19;14.90;40.70
16532;DHT22;66872;63.142;14.482;2023-10-13T16:08:45;14.90;40.70